Time;durP1;ratioP1;P1;durP2;ratioP2;P2;SDS_P1;SDS_P2;PMS_P1;PMS_P2;Temp;Humidity;BMP_temperature;BMP_pressure;BME280_temperature;BME280_humidity;BME280_pressure;Samples;Min_cycle;Max_cycle;Signal;HPM_P1;HPM_P2
2022/09/21 00:01:03;;;;;;;6.20;4.20;;;;;;;10.63;56.25;95059.94;4989960;28;20279;-67
2022/09/21 00:03:28;;;;;;;5.45;4.53;;;;;;;10.59;55.93;95055.97;4988491;28;20223;-68
2022/09/21 00:06:03;;;;;;;5.03;3.97;;;;;;;10.62;55.78;95054.84;4991720;28;20266;-68
2022/09/21 00:08:29;;;;;;;5.47;4.30;;;;;;;10.63;55.89;95062.56;4984793;28;20239;-68
2022/09/21 00:10:54;;;;;;;4.78;4.07;;;;;;;10.54;56.11;95063.50;4992514;28;20313;-68
2022/09/21 00:13:20;;;;;;;5.35;4.10;;;;;;;10.43;56.14;95064.53;4989650;28;20324;-68
2022/09/21 00:15:45;;;;;;;4.35;4.03;;;;;;;10.47;56.31;95063.25;4990597;28;21968;-67
2022/09/21 00:18:12;;;;;;;4.95;3.88;;;;;;;10.52;55.87;95058.38;4988633;28;20239;-69
2022/09/21 00:20:42;;;;;;;5.07;3.70;;;;;;;10.51;55.72;95064.63;4991050;28;20322;-68
2022/09/21 00:23:08;;;;;;;4.32;3.83;;;;;;;10.45;55.80;95062.59;4987600;28;20220;-67
2022/09/21 00:25:34;;;;;;;4.85;3.60;;;;;;;10.38;56.15;95058.91;5006330;28;20283;-67
2022/09/21 00:28:00;;;;;;;6.28;3.83;;;;;;;10.32;56.00;95051.63;4988364;28;20227;-67
2022/09/21 00:30:25;;;;;;;5.15;3.97;;;;;;;10.36;55.69;95055.59;4986993;28;20223;-67
2022/09/21 00:32:52;;;;;;;4.80;4.18;;;;;;;10.37;55.76;95050.19;4989238;28;20208;-68
2022/09/21 00:35:17;;;;;;;4.95;3.80;;;;;;;10.36;55.70;95042.44;4986950;28;20207;-67
2022/09/21 00:37:43;;;;;;;6.43;3.88;;;;;;;10.33;55.57;95058.53;4988817;28;20219;-67
2022/09/21 00:40:09;;;;;;;4.38;3.70;;;;;;;10.31;55.51;95055.22;4984847;28;20224;-67
2022/09/21 00:42:34;;;;;;;7.28;4.00;;;;;;;10.27;55.68;95056.47;4996768;28;20253;-68
2022/09/21 00:45:00;;;;;;;4.82;4.43;;;;;;;10.27;55.46;95056.47;4988778;28;20221;-67
2022/09/21 00:47:41;;;;;;;4.88;3.80;;;;;;;10.23;55.84;95055.09;4990812;28;20222;-68
2022/09/21 00:50:12;;;;;;;6.97;4.22;;;;;;;10.36;55.73;95058.22;4967433;28;20939;-68
2022/09/21 00:52:42;;;;;;;4.45;3.90;;;;;;;10.23;55.84;95052.47;4967964;28;20220;-67
2022/09/21 00:55:15;;;;;;;4.32;3.92;;;;;;;10.16;56.15;95053.06;4969307;28;20329;-67
2022/09/21 00:57:42;;;;;;;4.07;3.67;;;;;;;10.01;56.57;95049.28;4970528;28;20324;-67
2022/09/21 01:00:09;;;;;;;4.55;4.15;;;;;;;9.85;57.21;95054.34;4971389;28;20220;-67
2022/09/21 01:02:37;;;;;;;4.63;3.85;;;;;;;9.81;57.46;95051.22;4949646;28;20916;-68
2022/09/21 01:05:08;;;;;;;4.47;4.07;;;;;;;9.85;57.56;95044.66;4969352;28;20236;-67
2022/09/21 01:07:38;;;;;;;4.40;4.00;;;;;;;9.54;58.51;95044.13;4968645;28;20229;-68
2022/09/21 01:10:09;;;;;;;4.85;4.35;;;;;;;9.55;58.78;95043.16;4969152;28;20224;-68
2022/09/21 01:13:19;;;;;;;4.50;4.10;;;;;;;9.16;60.09;95052.97;4964065;28;20228;-68
2022/09/21 01:16:04;;;;;;;4.68;4.28;;;;;;;8.39;63.12;95055.53;4900923;29;20636;-67
2022/09/21 01:18:38;;;;;;;6.20;4.13;;;;;;;8.90;61.85;95050.97;4915445;29;20226;-68
2022/09/21 01:21:06;;;;;;;4.70;4.30;;;;;;;8.37;63.34;95054.81;4915379;29;20225;-68
2022/09/21 01:23:50;;;;;;;4.95;4.45;;;;;;;9.07;61.54;95051.19;4910262;29;20217;-67
2022/09/21 01:26:15;;;;;;;4.70;4.20;;;;;;;9.48;60.09;95042.09;4909788;29;20236;-68
2022/09/21 01:29:39;;;;;;;4.93;4.53;;;;;;;9.45;60.28;95039.75;4908937;29;20234;-68
2022/09/21 01:32:12;;;;;;;5.50;4.30;;;;;;;9.78;59.06;95037.53;4869589;29;20242;-68
2022/09/21 01:34:50;;;;;;;4.28;3.88;;;;;;;9.51;59.08;95036.53;4870621;29;20219;-69
2022/09/21 01:37:44;;;;;;;4.10;3.80;;;;;;;9.41;59.21;95030.50;4888476;29;20791;-69
2022/09/21 01:40:20;;;;;;;3.75;3.30;;;;;;;9.28;59.44;95023.78;4875354;29;20231;-69
2022/09/21 01:42:48;;;;;;;3.58;3.22;;;;;;;9.35;59.32;95029.28;4860912;29;20239;-69
2022/09/21 01:45:20;;;;;;;3.35;3.15;;;;;;;9.38;58.75;95029.00;4875094;29;20230;-67
2022/09/21 01:47:48;;;;;;;3.03;2.60;;;;;;;9.36;59.52;95028.31;4873462;29;20229;-67
2022/09/21 01:50:16;;;;;;;4.15;3.80;;;;;;;9.40;59.70;95031.47;4888586;29;20219;-68
2022/09/21 01:52:49;;;;;;;3.45;3.03;;;;;;;9.50;58.87;95030.47;4896152;29;20249;-67
2022/09/21 01:55:27;;;;;;;5.10;3.20;;;;;;;9.43;59.17;95033.81;4923965;29;20236;-67
2022/09/21 01:58:05;;;;;;;3.80;3.47;;;;;;;9.45;59.04;95024.81;4906100;29;20235;-67
2022/09/21 02:00:33;;;;;;;3.67;3.38;;;;;;;9.52;59.17;95030.34;4905969;29;20256;-66
2022/09/21 02:03:12;;;;;;;4.93;3.85;;;;;;;9.45;59.49;95026.63;4953101;28;20234;-68
2022/09/21 02:05:39;;;;;;;4.13;3.70;;;;;;;9.37;59.73;95029.97;5000196;28;20216;-66
2022/09/21 02:08:06;;;;;;;4.57;3.72;;;;;;;9.49;59.71;95033.25;4987813;28;20227;-67
2022/09/21 02:10:41;;;;;;;4.55;3.70;;;;;;;9.41;59.63;95030.50;4987519;28;20626;-66
2022/09/21 02:13:08;;;;;;;3.92;3.63;;;;;;;9.33;60.26;95033.00;4987957;28;20239;-67
2022/09/21 02:15:44;;;;;;;3.90;3.60;;;;;;;8.99;61.65;95042.25;4999290;28;20228;-68
2022/09/21 02:18:28;;;;;;;4.20;3.90;;;;;;;9.03;61.46;95034.91;4985855;28;20233;-68
2022/09/21 02:20:57;;;;;;;4.13;3.80;;;;;;;9.19;61.19;95039.56;4983530;28;20218;-67
2022/09/21 02:23:28;;;;;;;3.78;3.40;;;;;;;9.05;61.46;95048.72;4986012;28;20222;-69
2022/09/21 02:26:06;;;;;;;3.93;3.63;;;;;;;9.04;61.83;95053.13;4989894;28;20310;-68
2022/09/21 02:28:34;;;;;;;4.15;3.53;;;;;;;9.16;61.09;95045.09;4983044;28;20262;-68
2022/09/21 02:31:20;;;;;;;3.70;3.40;;;;;;;8.42;62.69;95054.44;5012685;28;20630;-69
2022/09/21 02:33:48;;;;;;;5.65;3.55;;;;;;;8.17;64.06;95053.13;4952728;28;20240;-69
2022/09/21 02:36:35;;;;;;;5.43;3.10;;;;;;;8.28;63.96;95049.56;4957564;28;20267;-69
2022/09/21 02:39:09;;;;;;;3.40;3.10;;;;;;;8.49;63.40;95047.66;4985355;28;20243;-68
2022/09/21 02:42:22;;;;;;;3.30;3.00;;;;;;;8.88;61.55;95049.44;4973314;28;20212;-69
2022/09/21 02:44:56;;;;;;;3.33;3.03;;;;;;;8.88;61.04;95047.66;4969465;28;20246;-69
2022/09/21 02:47:33;;;;;;;3.45;3.17;;;;;;;8.70;61.82;95049.31;4952976;28;20214;-67
2022/09/21 02:50:05;;;;;;;3.37;3.07;;;;;;;8.73;61.75;95055.09;4952406;28;20722;-68
2022/09/21 02:52:32;;;;;;;3.33;3.03;;;;;;;8.69;61.83;95048.50;4969887;28;20318;-68
2022/09/21 02:55:00;;;;;;;2.77;2.57;;;;;;;8.46;62.61;95052.38;4952206;28;20224;-68
2022/09/21 02:57:26;;;;;;;3.53;3.20;;;;;;;8.52;62.57;95059.66;4968695;28;20251;-68
2022/09/21 02:59:51;;;;;;;3.13;2.92;;;;;;;8.62;62.22;95052.63;4968168;28;20342;-68
2022/09/21 03:02:17;;;;;;;3.30;2.80;;;;;;;8.54;62.03;95045.47;4976263;28;20214;-66
2022/09/21 03:04:48;;;;;;;3.30;3.00;;;;;;;8.59;62.39;95047.69;4970329;28;20613;-66
2022/09/21 03:07:17;;;;;;;3.30;3.10;;;;;;;8.68;61.83;95054.69;4966806;28;20225;-67
2022/09/21 03:09:43;;;;;;;3.07;2.87;;;;;;;8.63;61.63;95062.13;4969572;28;20270;-68
2022/09/21 03:12:08;;;;;;;3.65;3.22;;;;;;;8.59;61.89;95060.78;4986507;28;20231;-67
2022/09/21 03:14:33;;;;;;;6.53;3.10;;;;;;;8.51;62.69;95052.78;4985401;28;20342;-68
2022/09/21 03:16:59;;;;;;;4.32;2.75;;;;;;;8.48;62.13;95047.81;4987734;28;20215;-67
2022/09/21 03:19:25;;;;;;;2.58;2.38;;;;;;;8.55;62.19;95049.75;4987255;28;20222;-67
2022/09/21 03:21:51;;;;;;;3.42;3.13;;;;;;;8.60;61.95;95050.13;4984720;28;20288;-68
2022/09/21 03:24:44;;;;;;;3.83;3.05;;;;;;;8.45;62.47;95050.72;4985560;28;20239;-69
2022/09/21 03:27:02;;;;;;;3.60;3.30;;;;;;;8.36;63.05;95049.69;4986021;28;20232;-67
2022/09/21 03:29:27;;;;;;;3.25;2.88;;;;;;;8.52;62.55;95051.81;4954129;28;20582;-67
2022/09/21 03:31:53;;;;;;;3.75;3.20;;;;;;;8.36;63.05;95052.31;4986483;28;20243;-67
2022/09/21 03:34:19;;;;;;;5.95;3.33;;;;;;;8.44;62.76;95056.91;4985889;28;20590;-67
2022/09/21 03:36:46;;;;;;;3.88;3.28;;;;;;;8.43;62.58;95057.88;4984705;28;20590;-67
2022/09/21 03:39:11;;;;;;;5.73;3.20;;;;;;;8.46;62.50;95054.97;4988424;28;20657;-68
2022/09/21 03:41:37;;;;;;;3.20;3.00;;;;;;;8.39;62.63;95050.31;4986342;28;20246;-68
2022/09/21 03:44:03;;;;;;;3.40;3.10;;;;;;;8.41;62.65;95051.94;4983727;28;20298;-68
2022/09/21 03:46:29;;;;;;;4.28;3.20;;;;;;;8.33;62.98;95049.97;4990408;28;20289;-68
2022/09/21 03:48:54;;;;;;;3.92;3.35;;;;;;;8.63;62.31;95059.53;4984292;28;20227;-68
2022/09/21 03:51:19;;;;;;;4.00;3.63;;;;;;;8.73;62.00;95065.59;4981331;28;20220;-67
2022/09/21 03:53:45;;;;;;;3.83;3.53;;;;;;;8.49;62.12;95058.16;4986407;28;20203;-69
2022/09/21 03:56:10;;;;;;;4.00;3.70;;;;;;;8.39;62.61;95063.41;4986625;28;20207;-69
2022/09/21 03:58:36;;;;;;;4.72;3.50;;;;;;;8.37;63.06;95070.53;4985025;28;20227;-68
2022/09/21 04:01:02;;;;;;;6.05;3.58;;;;;;;8.29;63.54;95065.16;4985706;28;20386;-67
2022/09/21 04:03:28;;;;;;;4.80;3.67;;;;;;;8.35;63.61;95067.22;4985162;28;20323;-69
2022/09/21 04:05:54;;;;;;;4.53;3.55;;;;;;;8.32;63.44;95070.13;4984176;28;20212;-69
2022/09/21 04:08:19;;;;;;;4.50;4.17;;;;;;;8.24;63.52;95062.13;4987840;28;20210;-69
2022/09/21 04:10:45;;;;;;;6.68;4.18;;;;;;;8.26;63.64;95059.34;4985694;28;20227;-69
2022/09/21 04:13:12;;;;;;;4.57;4.18;;;;;;;8.26;63.43;95069.81;4983770;28;20250;-67
2022/09/21 04:15:38;;;;;;;4.32;3.92;;;;;;;8.20;63.64;95071.19;4985883;28;20235;-68
2022/09/21 04:18:04;;;;;;;4.90;4.18;;;;;;;7.78;65.65;95060.94;4989453;28;20229;-68
2022/09/21 04:20:30;;;;;;;4.47;4.10;;;;;;;7.71;65.70;95065.84;4989196;28;20205;-69
2022/09/21 04:22:56;;;;;;;4.97;4.38;;;;;;;7.57;66.56;95055.75;4980828;28;20235;-69
2022/09/21 04:25:22;;;;;;;6.30;4.72;;;;;;;7.74;66.27;95065.59;4982969;28;20227;-70
2022/09/21 04:27:47;;;;;;;5.10;4.57;;;;;;;8.01;64.99;95058.06;4987389;28;20233;-66
2022/09/21 04:30:15;;;;;;;5.25;4.75;;;;;;;8.12;64.61;95066.63;4988221;28;20355;-68
2022/09/21 04:32:40;;;;;;;5.40;4.28;;;;;;;8.20;64.69;95068.56;4988128;28;20845;-67
2022/09/21 04:35:06;;;;;;;9.45;4.88;;;;;;;8.22;64.04;95064.03;4988664;28;20290;-66
2022/09/21 04:37:32;;;;;;;5.85;4.15;;;;;;;8.35;63.98;95069.00;4989788;28;20251;-68
2022/09/21 04:39:57;;;;;;;7.13;4.57;;;;;;;8.48;63.28;95063.53;4987716;28;20702;-67
2022/09/21 04:42:23;;;;;;;6.95;4.50;;;;;;;8.45;62.96;95069.06;4987844;28;20235;-67
2022/09/21 04:44:50;;;;;;;11.33;4.87;;;;;;;8.42;63.22;95072.78;4989182;28;20694;-67
2022/09/21 04:47:15;;;;;;;8.10;4.55;;;;;;;8.50;62.72;95069.44;4990231;28;20730;-67
2022/09/21 04:49:41;;;;;;;10.70;5.07;;;;;;;8.53;62.88;95069.19;4989353;28;20310;-67
2022/09/21 04:52:06;;;;;;;6.57;4.65;;;;;;;8.53;63.26;95063.97;4981008;28;20231;-67
2022/09/21 04:54:32;;;;;;;7.07;4.43;;;;;;;8.66;62.45;95072.38;4991325;28;20793;-67
2022/09/21 04:56:57;;;;;;;12.43;4.68;;;;;;;8.60;63.08;95070.28;4990192;28;20223;-68
2022/09/21 04:59:23;;;;;;;7.43;5.03;;;;;;;8.77;63.05;95072.22;4989876;28;20219;-67
2022/09/21 05:01:48;;;;;;;6.77;4.50;;;;;;;8.87;62.40;95077.44;4990929;28;20231;-67
2022/09/21 05:04:14;;;;;;;9.03;4.63;;;;;;;8.90;62.45;95076.34;4991305;28;20231;-68
2022/09/21 05:06:39;;;;;;;5.55;4.93;;;;;;;8.92;62.68;95083.09;4988365;28;20235;-67
2022/09/21 05:11:49;;;;;;;6.72;5.10;;;;;;;9.01;62.86;95077.03;4987269;28;20222;-68
2022/09/21 05:14:15;;;;;;;7.82;5.22;;;;;;;9.19;61.84;95077.09;4988650;28;20235;-68
2022/09/21 05:16:40;;;;;;;11.80;5.43;;;;;;;9.13;61.68;95082.09;4980874;28;20243;-68
2022/09/21 05:19:06;;;;;;;10.35;5.32;;;;;;;9.23;61.65;95077.66;4990301;28;20250;-68
2022/09/21 05:21:32;;;;;;;8.75;5.40;;;;;;;9.22;61.42;95070.75;4987897;28;20219;-67
2022/09/21 05:23:57;;;;;;;6.80;4.47;;;;;;;9.25;61.40;95075.75;4988040;28;20249;-65
2022/09/21 05:26:23;;;;;;;6.07;4.67;;;;;;;9.10;62.17;95083.22;4985097;28;20286;-66
2022/09/21 05:28:49;;;;;;;7.40;5.10;;;;;;;9.09;61.12;95076.31;4984866;28;20223;-66
2022/09/21 05:31:38;;;;;;;8.18;5.15;;;;;;;9.21;60.71;95076.97;4971316;28;20822;-66
2022/09/21 05:34:28;;;;;;;9.10;5.13;;;;;;;9.05;60.90;95081.00;4987442;28;20260;-65
2022/09/21 05:37:08;;;;;;;9.75;5.45;;;;;;;9.15;60.96;95077.56;4982658;28;20259;-66
2022/09/21 05:39:33;;;;;;;9.68;5.35;;;;;;;9.23;60.64;95073.25;4975274;28;20639;-65
2022/09/21 05:41:59;;;;;;;10.88;5.72;;;;;;;9.45;60.39;95076.50;4990417;28;20235;-69
2022/09/21 05:44:25;;;;;;;36.42;7.32;;;;;;;9.68;59.78;95069.91;4989134;28;20227;-70
2022/09/21 05:47:28;;;;;;;8.35;5.30;;;;;;;9.74;59.53;95076.38;4981894;28;20224;-70
2022/09/21 05:50:04;;;;;;;7.07;4.97;;;;;;;10.01;58.91;95072.94;5000115;28;20326;-67
2022/09/21 05:53:07;;;;;;;6.13;4.95;;;;;;;10.21;58.54;95072.81;4988522;28;20223;-67
2022/09/21 05:55:33;;;;;;;7.75;5.10;;;;;;;10.33;57.84;95071.66;5019453;28;20222;-66
2022/09/21 05:57:58;;;;;;;20.27;7.20;;;;;;;10.51;57.58;95076.94;4984437;28;20306;-66
2022/09/21 06:00:53;;;;;;;7.65;4.43;;;;;;;10.59;56.94;95075.22;4988639;28;20231;-66
2022/09/21 06:03:27;;;;;;;7.32;4.40;;;;;;;10.65;56.67;95075.59;4984107;28;20231;-66
2022/09/21 06:05:52;;;;;;;7.10;3.95;;;;;;;10.73;56.67;95070.41;4983040;28;20279;-66
2022/09/21 06:08:18;;;;;;;6.03;4.22;;;;;;;10.75;56.48;95073.72;4987049;28;20211;-67
2022/09/21 06:10:43;;;;;;;4.40;3.92;;;;;;;10.88;56.38;95078.56;4986948;28;20232;-66
2022/09/21 06:13:09;;;;;;;7.53;3.88;;;;;;;10.98;55.99;95068.78;4986803;28;20244;-67
2022/09/21 06:15:37;;;;;;;6.78;3.90;;;;;;;11.04;56.06;95079.53;4984717;28;20270;-67
2022/09/21 06:18:07;;;;;;;7.80;4.90;;;;;;;11.18;55.97;95077.31;4984424;28;20298;-67
2022/09/21 06:20:32;;;;;;;8.25;4.93;;;;;;;11.18;55.93;95079.97;4981881;28;20215;-67
2022/09/21 06:23:07;;;;;;;7.22;4.97;;;;;;;11.35;55.34;95083.53;4986898;28;20315;-66
2022/09/21 06:25:32;;;;;;;8.60;5.10;;;;;;;11.29;55.64;95081.50;4983487;28;20227;-65
2022/09/21 06:28:11;;;;;;;7.07;5.10;;;;;;;11.45;55.00;95085.06;4987907;28;20710;-68
2022/09/21 06:30:39;;;;;;;13.95;6.30;;;;;;;11.59;54.80;95096.84;4983480;28;20229;-68
2022/09/21 06:33:06;;;;;;;12.05;7.90;;;;;;;11.71;54.54;95078.97;4984912;28;20629;-67
2022/09/21 06:35:33;;;;;;;5.85;5.32;;;;;;;11.79;54.67;95086.91;4985534;28;20287;-69
2022/09/21 06:37:59;;;;;;;5.15;3.78;;;;;;;12.01;53.89;95095.28;4986943;28;20266;-70
2022/09/21 06:40:27;;;;;;;6.13;3.60;;;;;;;12.06;53.54;95096.44;4987579;28;20235;-68
2022/09/21 06:42:57;;;;;;;5.70;3.25;;;;;;;12.02;53.34;95094.28;4986281;28;20231;-68
2022/09/21 06:45:23;;;;;;;3.22;2.80;;;;;;;12.20;53.21;95091.53;4984242;28;20719;-68
2022/09/21 06:47:49;;;;;;;6.38;3.15;;;;;;;12.27;52.84;95093.38;4981808;28;20239;-69
2022/09/21 06:50:14;;;;;;;2.97;2.53;;;;;;;12.30;52.73;95094.88;4986735;28;20281;-68
2022/09/21 06:52:40;;;;;;;3.22;2.80;;;;;;;12.50;52.38;95100.69;4981094;28;20282;-69
2022/09/21 06:55:08;;;;;;;3.78;2.65;;;;;;;12.54;52.09;95109.94;4986038;28;20491;-69
2022/09/21 06:57:34;;;;;;;3.10;1.95;;;;;;;12.48;51.33;95100.00;4983482;28;20219;-69
2022/09/21 06:59:59;;;;;;;3.00;2.00;;;;;;;12.54;51.20;95109.94;4987255;28;20223;-68
2022/09/21 07:02:25;;;;;;;1.80;1.70;;;;;;;12.68;51.07;95108.47;4989067;28;20273;-69
2022/09/21 07:04:50;;;;;;;2.70;2.10;;;;;;;12.84;51.05;95105.03;4988412;28;20227;-69
2022/09/21 07:07:16;;;;;;;2.58;2.22;;;;;;;12.88;50.84;95107.16;4988126;28;20245;-69
2022/09/21 07:09:41;;;;;;;2.67;2.10;;;;;;;13.17;50.21;95105.88;4986585;28;20231;-68
2022/09/21 07:12:07;;;;;;;1.90;1.77;;;;;;;13.18;49.90;95116.28;4982729;28;20826;-69
2022/09/21 07:14:32;;;;;;;5.53;2.97;;;;;;;13.20;50.24;95113.44;4983553;28;20235;-69
2022/09/21 07:16:58;;;;;;;3.08;2.40;;;;;;;13.20;49.88;95108.16;4982957;28;20260;-70
2022/09/21 07:19:24;;;;;;;2.78;2.10;;;;;;;13.09;50.79;95111.16;4981840;28;21177;-68
2022/09/21 07:21:53;;;;;;;2.30;1.90;;;;;;;13.23;49.74;95113.97;4983976;28;20223;-70
2022/09/21 07:24:18;;;;;;;5.45;2.30;;;;;;;13.18;49.99;95107.53;4988416;28;20251;-69
2022/09/21 07:26:43;;;;;;;3.08;1.95;;;;;;;13.17;50.07;95109.31;4978852;28;20294;-69
2022/09/21 07:29:09;;;;;;;2.45;1.60;;;;;;;13.19;50.06;95107.34;4984460;28;20269;-68
2022/09/21 07:31:34;;;;;;;1.75;1.65;;;;;;;13.27;50.21;95114.47;4986367;28;20215;-69
2022/09/21 07:34:00;;;;;;;2.10;1.90;;;;;;;13.44;49.97;95112.66;4985169;28;20234;-68
2022/09/21 07:36:26;;;;;;;4.05;2.10;;;;;;;13.61;49.64;95114.28;4987234;28;20223;-67
2022/09/21 07:38:52;;;;;;;3.30;1.92;;;;;;;13.59;49.45;95118.91;4984445;28;20212;-68
2022/09/21 07:41:18;;;;;;;3.75;2.55;;;;;;;13.52;49.36;95117.09;4967870;28;20306;-68
2022/09/21 07:43:44;;;;;;;2.00;1.80;;;;;;;13.47;49.80;95120.22;4985512;28;20350;-69
2022/09/21 07:46:12;;;;;;;1.73;1.63;;;;;;;13.48;49.94;95110.50;4987184;28;20313;-69
2022/09/21 07:48:38;;;;;;;3.05;1.88;;;;;;;13.50;49.89;95117.28;5011216;28;20224;-68
2022/09/21 07:51:05;;;;;;;3.00;1.70;;;;;;;13.53;49.72;95111.66;4987337;28;20579;-68
2022/09/21 07:53:32;;;;;;;3.22;1.88;;;;;;;13.61;49.01;95114.28;4988369;28;20309;-69
2022/09/21 07:56:22;;;;;;;2.58;2.05;;;;;;;13.63;49.48;95112.31;4983103;28;20262;-69
2022/09/21 07:59:05;;;;;;;4.72;2.50;;;;;;;13.71;49.45;95115.91;4986242;28;20227;-68
2022/09/21 08:01:36;;;;;;;2.53;2.20;;;;;;;13.86;48.38;95119.50;4988746;28;20274;-69
2022/09/21 08:04:03;;;;;;;1.85;1.75;;;;;;;13.86;48.71;95103.66;4990961;28;20235;-69
2022/09/21 08:06:31;;;;;;;3.65;2.10;;;;;;;13.99;48.57;95108.41;5018980;28;20289;-68
2022/09/21 08:08:58;;;;;;;3.13;1.92;;;;;;;14.20;48.07;95106.00;4984535;28;20215;-68
2022/09/21 08:11:24;;;;;;;3.70;2.17;;;;;;;14.35;47.44;95108.75;4993398;28;20275;-69
2022/09/21 08:13:56;;;;;;;2.70;2.15;;;;;;;14.41;47.09;95107.25;4984936;28;20831;-70
2022/09/21 08:16:21;;;;;;;4.25;1.92;;;;;;;14.49;46.91;95113.31;4991992;28;20645;-72
2022/09/21 08:18:47;;;;;;;3.13;2.33;;;;;;;14.53;46.05;95101.41;4985791;28;20223;-70
2022/09/21 08:21:13;;;;;;;4.47;2.28;;;;;;;14.52;45.96;95107.72;4988011;28;20223;-69
2022/09/21 08:27:00;;;;;;;3.20;2.38;;;;;;;14.76;45.84;95109.38;4983011;28;20234;-69
2022/09/21 08:29:25;;;;;;;4.05;2.35;;;;;;;14.84;45.59;95103.22;4984101;28;20211;-70
2022/09/21 08:31:52;;;;;;;4.88;1.92;;;;;;;15.12;45.40;95095.56;4987825;28;20230;-70
2022/09/21 08:34:18;;;;;;;4.97;1.85;;;;;;;15.19;44.79;95095.69;4987645;28;20227;-69
2022/09/21 08:36:45;;;;;;;2.53;1.80;;;;;;;15.09;44.96;95092.44;4989159;28;20286;-70
2022/09/21 08:39:11;;;;;;;3.33;1.70;;;;;;;15.09;44.86;95097.75;4984088;28;20224;-70
2022/09/21 08:41:54;;;;;;;4.95;1.70;;;;;;;15.15;45.26;95094.38;4986783;28;20758;-70
2022/09/21 08:44:27;;;;;;;4.50;2.10;;;;;;;15.26;44.51;95101.06;4987077;28;20258;-70
2022/09/21 08:47:20;;;;;;;3.33;2.00;;;;;;;15.21;44.35;95091.84;4984073;28;20242;-70
2022/09/21 08:49:52;;;;;;;4.47;1.70;;;;;;;15.26;44.10;95079.88;4985141;28;20663;-71
2022/09/21 08:52:20;;;;;;;2.35;2.15;;;;;;;15.40;44.07;95087.88;4983939;28;20226;-70
2022/09/21 08:54:56;;;;;;;2.65;2.22;;;;;;;15.29;43.90;95076.88;4995194;28;20299;-70
2022/09/21 08:57:28;;;;;;;5.22;1.90;;;;;;;15.44;43.25;95081.19;4989354;28;20400;-69
2022/09/21 08:59:53;;;;;;;6.00;1.90;;;;;;;15.71;42.53;95072.88;4982139;28;20257;-69
2022/09/21 09:02:37;;;;;;;5.88;1.90;;;;;;;15.66;41.86;95076.88;4992568;28;20310;-69
2022/09/21 09:05:17;;;;;;;3.58;1.60;;;;;;;15.81;41.78;95068.13;4991074;28;20228;-69
2022/09/21 09:08:00;;;;;;;2.45;1.40;;;;;;;15.81;41.33;95060.97;4982834;28;20230;-67
2022/09/21 09:10:36;;;;;;;2.25;1.95;;;;;;;15.94;41.67;95063.00;4984158;28;20232;-68
2022/09/21 09:13:24;;;;;;;3.22;1.88;;;;;;;16.06;40.91;95066.00;5015435;28;20324;-67
2022/09/21 09:15:59;;;;;;;2.47;1.48;;;;;;;15.87;40.55;95067.38;4987416;28;20241;-68
2022/09/21 09:18:33;;;;;;;1.23;1.13;;;;;;;15.94;40.00;95062.19;4988145;28;20242;-68
2022/09/21 09:21:08;;;;;;;2.17;1.70;;;;;;;15.85;40.46;95056.13;5018692;28;20207;-68
2022/09/21 09:23:42;;;;;;;1.98;1.52;;;;;;;15.78;41.21;95056.06;4988851;28;20242;-68
2022/09/21 09:26:26;;;;;;;1.73;1.40;;;;;;;15.72;41.81;95050.66;4983456;28;20734;-67
2022/09/21 09:29:05;;;;;;;4.28;1.58;;;;;;;15.63;41.84;95044.56;4978286;28;20287;-69
2022/09/21 09:31:32;;;;;;;1.95;1.73;;;;;;;15.53;41.94;95049.31;4986690;28;20279;-68
2022/09/21 09:34:07;;;;;;;3.47;2.03;;;;;;;15.36;42.24;95044.19;4986654;28;21087;-68
2022/09/21 09:36:34;;;;;;;1.30;1.20;;;;;;;15.37;42.22;95048.50;4983863;28;20254;-68
2022/09/21 09:39:09;;;;;;;1.92;1.60;;;;;;;15.26;42.53;95045.44;4988545;28;20227;-69
2022/09/21 09:42:09;;;;;;;1.80;1.70;;;;;;;15.59;42.01;95060.03;4997218;28;20303;-69
2022/09/21 09:44:56;;;;;;;2.70;1.45;;;;;;;15.83;40.74;95043.06;4966777;28;20236;-70
2022/09/21 09:47:27;;;;;;;3.05;1.30;;;;;;;15.51;40.40;95041.56;4969474;28;20982;-70
2022/09/21 09:50:18;;;;;;;2.13;1.20;;;;;;;15.47;40.49;95034.16;4957941;28;20251;-70
2022/09/21 09:52:45;;;;;;;3.05;1.27;;;;;;;15.69;39.90;95020.03;4964799;28;20312;-70
2022/09/21 09:55:21;;;;;;;1.17;1.10;;;;;;;16.09;39.42;95029.34;4948753;28;20810;-67
2022/09/21 09:57:48;;;;;;;2.55;1.45;;;;;;;16.36;38.92;95018.19;4950006;28;20228;-70
2022/09/21 10:00:17;;;;;;;2.28;2.00;;;;;;;16.52;37.86;95026.75;4951025;28;20227;-71
2022/09/21 10:02:54;;;;;;;1.88;1.40;;;;;;;16.72;36.95;95013.66;4951709;28;20244;-70
2022/09/21 10:05:27;;;;;;;1.90;1.70;;;;;;;16.75;37.00;95015.13;4945929;28;20307;-70
2022/09/21 10:07:53;;;;;;;2.53;1.55;;;;;;;16.51;37.26;95006.50;4956179;28;20974;-70
2022/09/21 10:10:39;;;;;;;1.65;1.38;;;;;;;16.42;37.76;95012.97;4950550;28;20326;-70
2022/09/21 10:13:18;;;;;;;2.75;1.30;;;;;;;16.64;37.42;95010.31;4951407;28;20240;-70
2022/09/21 10:15:52;;;;;;;1.60;1.13;;;;;;;16.03;37.42;95011.50;4956497;28;20220;-70
2022/09/21 10:18:22;;;;;;;1.40;1.30;;;;;;;16.23;37.71;95008.28;4985987;28;20227;-70
2022/09/21 10:21:01;;;;;;;1.13;1.05;;;;;;;16.42;37.47;95001.53;4954265;28;20219;-70
2022/09/21 10:23:29;;;;;;;1.42;1.25;;;;;;;16.41;37.32;95006.03;4985827;28;20275;-70
2022/09/21 10:26:02;;;;;;;2.05;1.33;;;;;;;16.47;37.44;94999.13;4983612;28;20245;-70
2022/09/21 10:28:29;;;;;;;2.08;1.10;;;;;;;16.35;37.13;95000.63;4981142;28;20494;-70
2022/09/21 10:31:17;;;;;;;1.40;1.25;;;;;;;16.52;37.33;94994.91;4975868;28;20470;-68
2022/09/21 10:34:04;;;;;;;3.15;1.40;;;;;;;16.86;36.20;94997.88;4986259;28;20601;-68
2022/09/21 10:36:37;;;;;;;5.15;1.52;;;;;;;17.24;35.52;95001.09;4978914;28;20219;-68
2022/09/21 10:39:21;;;;;;;1.38;0.82;;;;;;;17.14;34.07;94993.44;4981482;28;20224;-67
2022/09/21 10:41:49;;;;;;;1.83;1.17;;;;;;;17.30;34.19;94996.81;4987458;28;20914;-67
2022/09/21 10:44:17;;;;;;;1.20;1.10;;;;;;;17.01;34.21;94980.06;4986966;28;20209;-69
2022/09/21 10:46:44;;;;;;;2.50;0.70;;;;;;;16.94;34.39;94982.63;4988533;28;20223;-69
2022/09/21 10:49:23;;;;;;;1.48;1.15;;;;;;;16.83;34.67;94985.81;4985582;28;20227;-69
2022/09/21 10:52:38;;;;;;;1.10;1.00;;;;;;;16.93;34.17;94973.03;4985224;28;20576;-69
2022/09/21 10:55:07;;;;;;;0.70;0.70;;;;;;;17.35;33.05;94973.16;4988005;28;20254;-69
2022/09/21 10:57:33;;;;;;;2.17;0.85;;;;;;;17.41;32.80;94954.56;4983125;28;20227;-69
2022/09/21 11:00:33;;;;;;;1.77;1.05;;;;;;;17.82;32.39;94963.59;4979931;28;20258;-69
2022/09/21 11:03:03;;;;;;;1.35;1.10;;;;;;;17.63;32.58;94965.94;5018129;28;20278;-68
2022/09/21 11:05:33;;;;;;;1.42;1.00;;;;;;;17.79;32.10;94971.97;4984750;28;20219;-69
2022/09/21 11:08:11;;;;;;;1.02;0.95;;;;;;;18.04;31.80;94962.50;4984417;28;20227;-68
2022/09/21 11:10:51;;;;;;;2.35;1.10;;;;;;;18.07;31.93;94962.09;4984770;28;20227;-69
2022/09/21 11:13:46;;;;;;;2.20;0.85;;;;;;;18.23;31.47;94950.25;4984940;28;20262;-70
2022/09/21 11:16:33;;;;;;;2.13;0.98;;;;;;;18.28;31.23;94954.97;5012627;28;20238;-69
2022/09/21 11:19:05;;;;;;;2.15;1.15;;;;;;;18.45;30.62;94960.75;4999655;28;20275;-69
2022/09/21 11:21:40;;;;;;;1.15;1.05;;;;;;;18.67;30.75;94964.88;5008603;28;20238;-69
2022/09/21 11:24:39;;;;;;;1.02;0.80;;;;;;;18.34;29.48;94961.34;4984061;28;20270;-70
2022/09/21 11:27:21;;;;;;;1.02;1.00;;;;;;;18.74;29.82;94954.25;5014451;28;20247;-71
2022/09/21 11:30:14;;;;;;;1.35;0.80;;;;;;;18.73;30.24;94952.59;4984868;28;20210;-73
2022/09/21 11:32:51;;;;;;;1.77;0.95;;;;;;;19.00;30.42;94957.97;4935689;28;20212;-71
2022/09/21 11:35:57;;;;;;;1.13;1.00;;;;;;;18.97;29.54;94959.19;4955476;28;20219;-69
2022/09/21 11:38:50;;;;;;;1.08;0.98;;;;;;;18.68;29.91;94952.38;4873546;29;20219;-70
2022/09/21 11:41:15;;;;;;;2.17;1.00;;;;;;;18.19;30.90;94959.66;4879547;29;20235;-71
2022/09/21 11:44:19;;;;;;;2.00;1.05;;;;;;;17.67;30.70;94946.94;4876574;29;20318;-69
2022/09/21 11:46:49;;;;;;;3.47;1.33;;;;;;;17.34;31.01;94951.03;4839073;29;20224;-68
2022/09/21 11:49:58;;;;;;;1.67;1.20;;;;;;;17.63;31.32;94949.97;4853909;29;20277;-70
2022/09/21 11:52:38;;;;;;;1.88;1.05;;;;;;;17.81;30.73;94949.50;4760784;29;20241;-70
2022/09/21 11:55:31;;;;;;;2.40;1.20;;;;;;;17.60;33.54;94966.34;4781928;30;20239;-68
2022/09/21 11:58:12;;;;;;;7.00;1.08;;;;;;;16.90;36.71;94959.34;4743251;30;20238;-69
2022/09/21 12:01:10;;;;;;;3.22;0.85;;;;;;;15.68;39.70;94973.28;4750612;30;20713;-69
2022/09/21 12:03:36;;;;;;;2.97;1.20;;;;;;;15.79;39.92;94972.84;4756085;30;20236;-69
2022/09/21 12:06:15;;;;;;;2.53;0.93;;;;;;;15.96;39.64;94972.63;4768589;30;20780;-69